St Crescent Heliport

FR-0099 · Aude, Occitanie, Frankreich

METAR-Geschichte FR-0099 · St Crescent Heliport

Unten siehst du die METARs der letzten paar Tage. Wähle ein Jahr, um ältere METARs ab dem Jahr 2007 zu durchsuchen.

25. Februar 2024

Uhrzeit Code Wetter Temp. Sichtweite Wolkendecke Wind METAR/SPECI
09:00
V
6 °C 10 km+ 16.000 ft 030° 030° 10 kt METAR LFMU 250800Z AUTO 03010KT 9999 FEW025 BKN160 06/03 Q1008 NOSIG
08:30
V
5 °C 10 km+ - 020° 020° 9 kt METAR LFMU 250730Z AUTO 02009KT CAVOK 05/02 Q1008 NOSIG
08:00
V
4 °C 10 km+ - 020° 020° 9 kt METAR LFMU 250700Z AUTO 02009KT CAVOK 04/02 Q1008 NOSIG
07:30
V
3 °C 10 km+ 17.000 ft 050° 050° 5 kt METAR LFMU 250630Z AUTO 05005KT 020V090 9999 FEW028 BKN170 03/02 Q1009 NOSIG
07:00
M
3 °C 10 km+ 2.600 ft 050° 050° 5 kt METAR LFMU 250600Z AUTO 05005KT 020V090 9999 BKN026 BKN150 OVC190 03/02 Q1009 NOSIG
06:30
V
3 °C 10 km+ - 060° 060° 5 kt METAR LFMU 250530Z AUTO 06005KT CAVOK 03/02 Q1009 NOSIG
06:00
V
2 °C 10 km+ - Var Var 2 kt METAR LFMU 250500Z AUTO VRB02KT CAVOK 02/01 Q1010 NOSIG
05:30
V
3 °C 10 km+ - 360° 360° 4 kt METAR LFMU 250430Z AUTO 36004KT 340V040 CAVOK 03/01 Q1010 NOSIG
05:00
V
3 °C 10 km+ - 030° 030° 3 kt METAR LFMU 250400Z AUTO 03003KT CAVOK 03/02 Q1010 NOSIG
04:30
V
3 °C 10 km+ - 030° 030° 3 kt METAR LFMU 250330Z AUTO 03003KT CAVOK 03/01 Q1010 NOSIG
04:00
V
4 °C 10 km+ - 360° 360° 0 kt METAR LFMU 250300Z AUTO 00000KT CAVOK 04/01 Q1011 NOSIG
03:30
V
4 °C 10 km+ - 240° 240° 3 kt METAR LFMU 250230Z AUTO 24003KT CAVOK 04/01 Q1011
03:00
V
4 °C 10 km+ - Var Var 2 kt METAR LFMU 250200Z AUTO VRB02KT CAVOK 04/02 Q1011
02:30
V
4 °C 10 km+ - 230° 230° 4 kt METAR LFMU 250130Z AUTO 23004KT CAVOK 04/02 Q1012
02:00
V
4 °C 10 km+ - 260° 260° 4 kt METAR LFMU 250100Z AUTO 26004KT 220V290 CAVOK 04/02 Q1012
01:30
V
3 °C 10 km+ - 260° 260° 5 kt METAR LFMU 250030Z AUTO 26005KT CAVOK 03/01 Q1012
01:00
V
4 °C 10 km+ - 240° 240° 3 kt METAR LFMU 250000Z AUTO 24003KT CAVOK 04/01 Q1012
00:30
V
4 °C 10 km+ - 250° 250° 4 kt METAR LFMU 242330Z AUTO 25004KT CAVOK 04/01 Q1012
00:00
V
4 °C 10 km+ - Var Var 1 kt METAR LFMU 242300Z AUTO VRB01KT CAVOK 04/01 Q1012

24. Februar 2024

Uhrzeit Code Wetter Temp. Sichtweite Wolkendecke Wind METAR/SPECI
23:30
V
4 °C 10 km+ - 260° 260° 3 kt METAR LFMU 242230Z AUTO 26003KT CAVOK 04/01 Q1013
23:00
V
4 °C 10 km+ - Var Var 2 kt METAR LFMU 242200Z AUTO VRB02KT CAVOK 04/01 Q1012
22:30
V
5 °C 10 km+ - Var Var 2 kt METAR LFMU 242130Z AUTO VRB02KT CAVOK 05/01 Q1012
22:00
V
5 °C 10 km+ - 360° 360° 0 kt METAR LFMU 242100Z AUTO 00000KT CAVOK 05/M00 Q1012
21:30
V
5 °C 10 km+ - Var Var 2 kt METAR LFMU 242030Z AUTO VRB02KT CAVOK 05/00 Q1012
21:00
V
5 °C 10 km+ - Var Var 2 kt METAR LFMU 242000Z AUTO VRB02KT CAVOK 05/M01 Q1012
20:30
V
6 °C 10 km+ - 070° 070° 1 kt METAR LFMU 241930Z AUTO 07001KT CAVOK 06/M00 Q1012 BECMG 27010KT
20:00
V
6 °C 10 km+ - 280° 280° 3 kt METAR LFMU 241900Z AUTO 28003KT 220V350 CAVOK 06/M00 Q1012 NOSIG
19:30
V
7 °C 10 km+ - 340° 340° 4 kt METAR LFMU 241830Z AUTO 34004KT 240V350 CAVOK 07/00 Q1011 NOSIG
19:00
V
9 °C 10 km+ - 330° 330° 9 kt METAR LFMU 241800Z AUTO 33009KT CAVOK 09/M00 Q1011 BECMG 27010KT
18:30
V
10 °C 10 km+ - 310° 310° 10 kt METAR LFMU 241730Z AUTO 31010KT CAVOK 10/00 Q1010 NOSIG
18:00
V
11 °C 10 km+ - 300° 300° 12 kt METAR LFMU 241700Z AUTO 30012KT CAVOK 11/01 Q1010 NOSIG
17:30
V
11 °C 10 km+ - 290° 290° 16 kt METAR LFMU 241630Z AUTO 29016KT CAVOK 11/01 Q1010 NOSIG
17:00
V
12 °C 10 km+ 7.000 ft 310° 310° 13 kt METAR LFMU 241600Z AUTO 31013KT 270V360 9999 FEW046 BKN070 12/02 Q1009 NOSIG
16:30
V
13 °C 10 km+ - 270° 270° 15 kt METAR LFMU 241530Z AUTO 27015KT CAVOK 13/02 Q1009 NOSIG
16:00
V
13 °C 10 km+ - 280° 280° 15 kt METAR LFMU 241500Z AUTO 28015KT CAVOK 13/01 Q1008 NOSIG
15:30
V
13 °C 10 km+ - 290° 290° 17 kt METAR LFMU 241430Z AUTO 29017KT CAVOK 13/02 Q1008 NOSIG
15:00
V
13 °C 10 km+ - 280° 280° 19 kt METAR LFMU 241400Z AUTO 28019KT CAVOK 13/02 Q1008 NOSIG
14:30
V
13 °C 10 km+ - 290° 290° 20 kt METAR LFMU 241330Z AUTO 29020KT 9999 FEW047 13/02 Q1008 BECMG 27010KT
14:00
V
13 °C 10 km+ - 280° 280° 12 kt METAR LFMU 241300Z AUTO 28012KT 9999 FEW049 13/02 Q1008 NOSIG
13:30
V
13 °C 10 km+ - 300° 300° 16 kt METAR LFMU 241230Z AUTO 30016KT CAVOK 13/01 Q1007 NOSIG
13:00
V
13 °C 10 km+ - 290° 290° 17 kt METAR LFMU 241200Z AUTO 29017KT 260V320 CAVOK 13/02 Q1008 NOSIG
12:30
V
12 °C 10 km+ - 280° 280° 16 kt METAR LFMU 241130Z AUTO 28016KT CAVOK 12/02 Q1008 NOSIG
12:00
V
12 °C 10 km+ - 280° 280° 10 kt METAR LFMU 241100Z AUTO 28010KT 240V310 CAVOK 12/02 Q1008 NOSIG
11:30
V
11 °C 10 km+ - 270° 270° 10 kt METAR LFMU 241030Z AUTO 27010KT 240V300 CAVOK 11/03 Q1008 NOSIG
11:00
V
10 °C 10 km+ - 300° 300° 12 kt METAR LFMU 241000Z AUTO 30012KT CAVOK 10/02 Q1007 NOSIG
10:30
V
10 °C 10 km+ - 300° 300° 9 kt METAR LFMU 240930Z AUTO 30009KT CAVOK 10/03 Q1007 NOSIG
10:00
V
9 °C 10 km+ - 290° 290° 6 kt METAR LFMU 240900Z AUTO 29006KT 270V330 CAVOK 09/03 Q1007 NOSIG
09:30
V
8 °C 10 km+ - 240° 240° 5 kt METAR LFMU 240830Z AUTO 24005KT 210V270 CAVOK 08/03 Q1007 NOSIG
09:00
V
7 °C 10 km+ - Var Var 3 kt METAR LFMU 240800Z AUTO VRB03KT CAVOK 07/03 Q1006 NOSIG
08:30
V
5 °C 10 km+ - 340° 340° 1 kt METAR LFMU 240730Z AUTO 34001KT CAVOK 05/03 Q1006 NOSIG
08:00
V
6 °C 10 km+ - 240° 240° 2 kt METAR LFMU 240700Z AUTO 24002KT CAVOK 06/02 Q1006 NOSIG
07:30
V
6 °C 10 km+ - 240° 240° 4 kt METAR LFMU 240630Z AUTO 24004KT CAVOK 06/02 Q1006 NOSIG
07:00
V
6 °C 10 km+ - 280° 280° 4 kt METAR LFMU 240600Z AUTO 28004KT CAVOK 06/03 Q1005 NOSIG
06:30
V
6 °C 10 km+ - 280° 280° 7 kt METAR LFMU 240530Z AUTO 28007KT CAVOK 06/03 Q1005 NOSIG
06:00
V
6 °C 10 km+ - 270° 270° 4 kt METAR LFMU 240500Z AUTO 27004KT CAVOK 06/02 Q1005 NOSIG
05:30
V
5 °C 10 km+ - 220° 220° 5 kt METAR LFMU 240430Z AUTO 22005KT 190V260 CAVOK 05/02 Q1005 NOSIG
05:00
V
5 °C 10 km+ - Var Var 2 kt METAR LFMU 240400Z AUTO VRB02KT CAVOK 05/02 Q1005 NOSIG
04:30
V
5 °C 10 km+ - 220° 220° 3 kt METAR LFMU 240330Z AUTO 22003KT 170V280 CAVOK 05/02 Q1005 NOSIG
04:00
V
6 °C 10 km+ - 260° 260° 8 kt METAR LFMU 240300Z AUTO 26008KT CAVOK 06/02 Q1005 NOSIG
03:30
V
5 °C 10 km+ - 260° 260° 7 kt METAR LFMU 240230Z AUTO 26007KT CAVOK 05/02 Q1005 NOSIG
03:00
V
6 °C 10 km+ - 210° 210° 5 kt METAR LFMU 240200Z AUTO 21005KT CAVOK 06/02 Q1005
02:30
V
6 °C 10 km+ - 260° 260° 3 kt METAR LFMU 240130Z AUTO 26003KT 230V310 CAVOK 06/03 Q1005
02:00
V
7 °C 10 km+ - 290° 290° 8 kt METAR LFMU 240100Z AUTO 29008KT CAVOK 07/03 Q1005
01:30
V
7 °C 10 km+ - 290° 290° 8 kt METAR LFMU 240030Z AUTO 29008KT CAVOK 07/03 Q1005
01:00
V
8 °C 10 km+ - 270° 270° 9 kt METAR LFMU 240000Z AUTO 27009KT 240V300 CAVOK 08/03 Q1005
00:30
V
8 °C 10 km+ - 270° 270° 7 kt METAR LFMU 232330Z AUTO 27007KT CAVOK 08/03 Q1005
00:00
V
8 °C 10 km+ - 270° 270° 14 kt METAR LFMU 232300Z AUTO 27014KT CAVOK 08/03 Q1006

23. Februar 2024

Uhrzeit Code Wetter Temp. Sichtweite Wolkendecke Wind METAR/SPECI
23:30
V
8 °C 10 km+ - 270° 270° 13 kt METAR LFMU 232230Z AUTO 27013KT CAVOK 08/03 Q1005
23:00
V
8 °C 10 km+ - 260° 260° 11 - 22 kt METAR LFMU 232200Z AUTO 26011G22KT CAVOK 08/03 Q1005
22:30
V
7 °C 10 km+ - 280° 280° 10 kt METAR LFMU 232130Z AUTO 28010KT CAVOK 07/03 Q1005
22:00
V
6 °C 10 km+ - 250° 250° 6 kt METAR LFMU 232100Z AUTO 25006KT CAVOK 06/02 Q1006
21:30
V
7 °C 10 km+ - 230° 230° 4 kt METAR LFMU 232030Z AUTO 23004KT CAVOK 07/02 Q1005
21:00
V
7 °C 10 km+ - 250° 250° 6 kt METAR LFMU 232000Z AUTO 25006KT CAVOK 07/02 Q1005 NOSIG
20:30
V
7 °C 10 km+ - 250° 250° 6 kt METAR LFMU 231930Z AUTO 25006KT CAVOK 07/01 Q1005 NOSIG
20:00
V
9 °C 10 km+ - 260° 260° 7 kt METAR LFMU 231900Z AUTO 26007KT 230V290 CAVOK 09/02 Q1005 NOSIG
19:30
V
9 °C 10 km+ - 260° 260° 7 kt METAR LFMU 231830Z AUTO 26007KT 230V290 CAVOK 09/02 Q1004 NOSIG
19:00
V
9 °C 10 km+ - 280° 280° 13 kt METAR LFMU 231800Z AUTO 28013KT CAVOK 09/02 Q1004 NOSIG
18:30
V
10 °C 10 km+ - 290° 290° 15 kt METAR LFMU 231730Z AUTO 29015KT CAVOK 10/02 Q1004 NOSIG
18:00
V
11 °C 10 km+ - 300° 300° 17 kt METAR LFMU 231700Z AUTO 30017KT 9999 FEW046 11/02 Q1004 BECMG 24007KT
17:30
V
11 °C 10 km+ - 290° 290° 16 kt METAR LFMU 231630Z AUTO 29016KT CAVOK 11/02 Q1004 NOSIG
17:00
V
11 °C 10 km+ - 290° 290° 14 kt METAR LFMU 231600Z AUTO 29014KT 250V320 CAVOK 11/02 Q1003 NOSIG
16:30
V
12 °C 10 km+ - 280° 280° 15 kt METAR LFMU 231530Z AUTO 28015KT CAVOK 12/02 Q1004 NOSIG
16:00
V
12 °C 10 km+ - 290° 290° 22 - 33 kt METAR LFMU 231500Z AUTO 29022G33KT 9999 FEW047 12/01 Q1003 BECMG 28012KT
15:30
V
12 °C 10 km+ - 300° 300° 23 kt METAR LFMU 231430Z AUTO 30023KT 9999 FEW038 12/02 Q1003 BECMG 28012KT
15:00
V
12 °C 10 km+ - 290° 290° 23 kt METAR LFMU 231400Z AUTO 29023KT 9999 FEW039 12/03 Q1004 BECMG 28020G35KT
14:30
V
12 °C 10 km+ - 290° 290° 23 kt METAR LFMU 231330Z AUTO 29023KT 9999 FEW041 12/02 Q1004 BECMG 28020G35KT
14:00
V
12 °C 10 km+ - 290° 290° 20 kt METAR LFMU 231300Z AUTO 29020KT 9999 FEW042 12/03 Q1004 BECMG 28020G35KT
13:30
V
12 °C 10 km+ - 290° 290° 19 kt METAR LFMU 231230Z AUTO 29019KT 9999 FEW043 SCT049 12/02 Q1004 BECMG 28020G35KT
13:00
V
12 °C 10 km+ 20.000 ft 290° 290° 22 kt METAR LFMU 231200Z AUTO 29022KT 9999 FEW049 BKN200 12/03 Q1004 BECMG 28020G35KT
12:30
V
11 °C 10 km+ - 290° 290° 22 kt METAR LFMU 231130Z AUTO 29022KT CAVOK 11/02 Q1004 BECMG 28020G35KT
12:00
V
11 °C 10 km+ 20.000 ft 290° 290° 22 kt METAR LFMU 231100Z AUTO 29022KT 9999 FEW049 BKN200 11/02 Q1004 BECMG 28020G35KT
11:30
V
11 °C 10 km+ - 280° 280° 14 kt METAR LFMU 231030Z AUTO 28014KT 9999 FEW046 SCT200 11/03 Q1004 BECMG 28020G35KT
11:00
V
10 °C 10 km+ - 280° 280° 20 kt METAR LFMU 231000Z AUTO 28020KT CAVOK 10/02 Q1004 BECMG 28020G35KT
10:30
V
10 °C 10 km+ - 260° 260° 12 kt METAR LFMU 230930Z AUTO 26012KT CAVOK 10/03 Q1004 BECMG 28020G35KT
10:00
V
11 °C 10 km+ - 270° 270° 10 kt METAR LFMU 230900Z AUTO 27010KT CAVOK 11/03 Q1004 BECMG 28020G35KT
09:30
V
11 °C 10 km+ - 290° 290° 9 kt METAR LFMU 230830Z AUTO 29009KT 250V320 CAVOK 11/03 Q1004 BECMG 28020G35KT
09:00
V
9 °C 10 km+ - 280° 280° 10 kt METAR LFMU 230800Z AUTO 28010KT CAVOK 09/03 Q1004 BECMG 29015G25KT
08:30
V
8 °C 10 km+ - 250° 250° 4 kt METAR LFMU 230730Z AUTO 25004KT 200V290 CAVOK 08/03 Q1004 BECMG 29015G25KT
08:00
V
6 °C 10 km+ - 280° 280° 8 kt METAR LFMU 230700Z AUTO 28008KT CAVOK 06/03 Q1004 BECMG 29015G25KT
07:30
V
7 °C 10 km+ - 280° 280° 7 kt METAR LFMU 230630Z AUTO 28007KT CAVOK 07/03 Q1004 BECMG 29015G25KT
07:00
V
7 °C 10 km+ - 280° 280° 9 kt METAR LFMU 230600Z AUTO 28009KT CAVOK 07/03 Q1004 NOSIG